Time;durP1;ratioP1;P1;durP2;ratioP2;P2;SDS_P1;SDS_P2;PMS_P1;PMS_P2;Temp;Humidity;BMP_temperature;BMP_pressure;BME280_temperature;BME280_humidity;BME280_pressure;Samples;Min_cycle;Max_cycle;Signal;HPM_P1;HPM_P2
2022/01/01 00:00:13;;;;;;;45.28;22.73;;;13.00;99.90;;;;;;5094866;27;20058;-61
2022/01/01 00:02:43;;;;;;;33.97;20.33;;;13.00;99.90;;;;;;5118061;27;20050;-61
2022/01/01 00:05:12;;;;;;;29.98;19.65;;;13.00;99.90;;;;;;5101741;27;20091;-62
2022/01/01 00:07:40;;;;;;;32.25;20.38;;;13.00;99.90;;;;;;5103583;28;20036;-61
2022/01/01 00:10:09;;;;;;;33.60;18.98;;;13.00;99.90;;;;;;5090513;28;20122;-61
2022/01/01 00:12:36;;;;;;;37.13;22.50;;;13.00;99.90;;;;;;5086311;27;20050;-61
2022/01/01 00:15:04;;;;;;;35.10;21.65;;;13.00;99.90;;;;;;5099600;27;20130;-61
2022/01/01 00:17:32;;;;;;;46.47;25.55;;;12.90;99.90;;;;;;5078649;27;20048;-61
2022/01/01 00:20:00;;;;;;;42.53;24.25;;;13.00;99.90;;;;;;5118651;27;20040;-62
2022/01/01 00:22:27;;;;;;;35.60;22.88;;;12.90;99.90;;;;;;5122536;27;20100;-62
2022/01/01 00:24:55;;;;;;;36.35;24.25;;;13.00;99.90;;;;;;5098802;27;20350;-63
2022/01/01 00:27:22;;;;;;;35.10;23.95;;;13.00;99.90;;;;;;5102674;27;20072;-61
2022/01/01 00:29:50;;;;;;;34.78;22.90;;;13.00;99.90;;;;;;5101400;27;20070;-63
2022/01/01 00:32:18;;;;;;;32.85;20.95;;;13.00;99.90;;;;;;5113203;27;20039;-62
2022/01/01 00:34:45;;;;;;;37.78;22.35;;;13.00;99.90;;;;;;5099162;28;20082;-61
2022/01/01 00:37:13;;;;;;;34.65;23.67;;;13.00;99.90;;;;;;5127134;27;20043;-62
2022/01/01 00:39:40;;;;;;;34.42;20.25;;;13.00;99.90;;;;;;5102221;28;20118;-62
2022/01/01 00:42:09;;;;;;;36.22;22.30;;;13.00;99.90;;;;;;5101767;28;20131;-62
2022/01/01 00:44:36;;;;;;;31.40;19.27;;;13.00;99.90;;;;;;5107483;28;20071;-61
2022/01/01 00:47:04;;;;;;;31.65;19.05;;;13.00;99.90;;;;;;5106101;28;20420;-62
2022/01/01 00:49:32;;;;;;;32.88;20.30;;;13.00;99.90;;;;;;5124357;28;20043;-62
2022/01/01 00:51:59;;;;;;;28.27;20.52;;;13.00;99.90;;;;;;5109228;28;20040;-62
2022/01/01 00:54:27;;;;;;;33.85;20.77;;;13.00;99.90;;;;;;5119575;28;20469;-62
2022/01/01 00:56:55;;;;;;;28.05;20.63;;;12.90;99.90;;;;;;5098692;28;20047;-62
2022/01/01 00:59:24;;;;;;;28.00;19.15;;;13.00;99.90;;;;;;5081126;28;20039;-62
2022/01/01 01:01:51;;;;;;;27.67;20.15;;;12.90;99.90;;;;;;5081841;28;20063;-62
2022/01/01 01:04:19;;;;;;;30.52;18.80;;;12.90;99.90;;;;;;5124772;28;20047;-62
2022/01/01 01:06:46;;;;;;;32.70;18.63;;;12.90;99.90;;;;;;5106075;28;20062;-61
2022/01/01 01:09:14;;;;;;;27.23;18.85;;;12.90;99.90;;;;;;5088126;28;20084;-62
2022/01/01 01:11:45;;;;;;;26.85;18.45;;;12.80;99.90;;;;;;5082522;28;20433;-62
2022/01/01 01:14:22;;;;;;;27.92;17.90;;;12.80;99.90;;;;;;5082661;28;20067;-61
2022/01/01 01:16:52;;;;;;;26.35;17.80;;;12.80;99.90;;;;;;5083245;28;20062;-62
2022/01/01 01:19:20;;;;;;;26.70;15.98;;;12.80;99.90;;;;;;5117686;28;20050;-62
2022/01/01 01:21:49;;;;;;;27.63;17.17;;;12.90;99.90;;;;;;5066231;28;20393;-63
2022/01/01 01:24:17;;;;;;;28.48;15.55;;;12.90;99.90;;;;;;5109685;28;20405;-62
2022/01/01 01:26:49;;;;;;;21.33;14.98;;;12.90;99.90;;;;;;5102982;28;20031;-63
2022/01/01 01:29:18;;;;;;;21.00;13.45;;;13.00;99.90;;;;;;5084231;28;20489;-62
2022/01/01 01:31:47;;;;;;;22.00;12.57;;;13.00;99.90;;;;;;5116298;28;20485;-62
2022/01/01 01:34:14;;;;;;;22.20;14.52;;;13.00;99.90;;;;;;5106727;28;20059;-62
2022/01/01 01:36:42;;;;;;;25.55;14.77;;;13.00;99.90;;;;;;5123648;28;20039;-62
2022/01/01 01:39:10;;;;;;;21.15;13.77;;;12.90;99.90;;;;;;5103449;28;20043;-62
2022/01/01 01:41:37;;;;;;;21.08;13.18;;;12.90;99.90;;;;;;5114225;28;20054;-62
2022/01/01 01:44:36;;;;;;;22.17;13.48;;;12.80;99.90;;;;;;5081878;28;20043;-62
2022/01/01 01:47:13;;;;;;;21.67;13.82;;;12.80;99.90;;;;;;5067771;28;20059;-63
2022/01/01 01:49:47;;;;;;;21.92;12.85;;;12.80;99.90;;;;;;5107326;27;20465;-63
2022/01/01 01:52:17;;;;;;;21.38;14.68;;;12.80;99.90;;;;;;5110430;27;20032;-63
2022/01/01 01:54:44;;;;;;;22.60;13.75;;;12.80;99.90;;;;;;5097216;27;20031;-62
2022/01/01 01:57:12;;;;;;;22.20;13.65;;;12.80;99.90;;;;;;5104602;27;20443;-64
2022/01/01 01:59:44;;;;;;;24.13;13.82;;;12.80;99.90;;;;;;5084347;28;20046;-62
2022/01/01 02:02:12;;;;;;;20.13;14.07;;;12.70;99.90;;;;;;5099772;27;20063;-62
2022/01/01 02:04:40;;;;;;;27.02;17.00;;;12.70;99.90;;;;;;5119289;27;20101;-62
2022/01/01 02:07:08;;;;;;;27.83;16.17;;;12.70;99.90;;;;;;5074817;28;20417;-62
2022/01/01 02:09:37;;;;;;;21.20;14.02;;;12.70;99.90;;;;;;5076440;28;20497;-62
2022/01/01 02:12:09;;;;;;;24.35;14.70;;;12.70;99.90;;;;;;5081642;28;20054;-62
2022/01/01 02:17:29;;;;;;;26.52;15.55;;;12.60;99.90;;;;;;5116997;28;20071;-62
2022/01/01 02:20:03;;;;;;;21.10;14.60;;;12.60;99.90;;;;;;5098650;28;20036;-62
2022/01/01 02:22:44;;;;;;;23.92;13.88;;;12.60;99.90;;;;;;5116520;28;20035;-62
2022/01/01 02:25:12;;;;;;;25.35;15.07;;;12.60;99.90;;;;;;5098573;28;20366;-62
2022/01/01 02:27:40;;;;;;;23.92;13.27;;;12.60;99.90;;;;;;5081391;28;20047;-62
2022/01/01 02:30:11;;;;;;;24.98;12.52;;;12.60;99.90;;;;;;5098290;28;20493;-62
2022/01/01 02:32:39;;;;;;;22.83;14.27;;;12.60;99.90;;;;;;5098351;28;20040;-62
2022/01/01 02:35:09;;;;;;;17.67;13.07;;;12.50;99.90;;;;;;5081473;28;20040;-62
2022/01/01 02:37:38;;;;;;;17.80;11.30;;;12.50;99.90;;;;;;5116139;28;20043;-62
2022/01/01 02:40:10;;;;;;;20.92;11.60;;;12.50;99.90;;;;;;5098099;28;20039;-62
2022/01/01 02:42:44;;;;;;;19.30;10.13;;;12.50;99.90;;;;;;5064888;28;20059;-62
2022/01/01 02:45:14;;;;;;;17.20;10.45;;;12.50;99.90;;;;;;5097898;28;20043;-62
2022/01/01 02:47:42;;;;;;;19.60;11.80;;;12.50;99.90;;;;;;5096060;28;20173;-62
2022/01/01 02:50:11;;;;;;;19.75;12.45;;;12.50;99.90;;;;;;5081301;28;20051;-62
2022/01/01 02:52:39;;;;;;;20.67;11.77;;;12.50;99.90;;;;;;5064446;28;20047;-62
2022/01/01 02:55:07;;;;;;;21.63;11.65;;;12.50;99.90;;;;;;5080873;28;20481;-62
2022/01/01 02:57:35;;;;;;;18.80;11.55;;;12.40;99.90;;;;;;5081308;28;20066;-62
2022/01/01 03:00:04;;;;;;;21.63;11.93;;;12.40;99.90;;;;;;5097720;28;20444;-62
2022/01/01 03:02:32;;;;;;;16.90;10.95;;;12.40;99.90;;;;;;5080726;28;20510;-63
2022/01/01 03:04:59;;;;;;;21.23;11.15;;;12.40;99.90;;;;;;5064112;28;20112;-62
2022/01/01 03:07:27;;;;;;;15.80;10.57;;;12.40;99.90;;;;;;5115505;28;20035;-62
2022/01/01 03:09:54;;;;;;;21.05;9.98;;;12.40;99.90;;;;;;5115342;28;20390;-62
2022/01/01 03:12:22;;;;;;;21.20;9.98;;;12.40;99.90;;;;;;5115495;28;20042;-62
2022/01/01 03:14:49;;;;;;;18.88;11.20;;;12.30;99.90;;;;;;5097474;28;20052;-62
2022/01/01 03:17:17;;;;;;;17.52;10.43;;;12.30;99.90;;;;;;5114830;28;20044;-66
2022/01/01 03:19:44;;;;;;;17.58;11.45;;;12.30;99.90;;;;;;5114082;28;20130;-62
2022/01/01 03:22:12;;;;;;;19.25;11.05;;;12.20;99.90;;;;;;5096434;28;20051;-63
2022/01/01 03:24:40;;;;;;;18.50;11.18;;;12.20;99.90;;;;;;5097304;28;20078;-62
2022/01/01 03:27:07;;;;;;;22.77;11.73;;;12.20;99.90;;;;;;5080507;28;20135;-62
2022/01/01 03:29:35;;;;;;;22.55;12.43;;;12.10;99.90;;;;;;5097203;28;20051;-62
2022/01/01 03:32:02;;;;;;;22.08;12.80;;;12.10;99.90;;;;;;5079860;28;20069;-62
2022/01/01 03:34:30;;;;;;;20.27;12.68;;;12.00;99.90;;;;;;5080316;28;20047;-62
2022/01/01 03:36:58;;;;;;;25.33;13.27;;;12.00;99.90;;;;;;5114922;28;20550;-62
2022/01/01 03:39:27;;;;;;;26.80;15.95;;;11.90;99.90;;;;;;5096774;28;20406;-62
2022/01/01 03:41:54;;;;;;;22.50;12.23;;;11.80;99.90;;;;;;5106546;28;20375;-62
2022/01/01 03:44:22;;;;;;;20.42;13.68;;;11.80;99.90;;;;;;5096798;28;20376;-62
2022/01/01 03:46:51;;;;;;;22.02;13.25;;;11.80;99.90;;;;;;5125161;27;20401;-62
2022/01/01 03:49:18;;;;;;;17.95;11.88;;;11.80;99.90;;;;;;5083158;27;20057;-62
2022/01/01 03:51:46;;;;;;;21.00;12.85;;;11.80;99.90;;;;;;5116979;27;20067;-62
2022/01/01 03:54:15;;;;;;;18.23;13.20;;;11.80;99.90;;;;;;5099932;27;20054;-62
2022/01/01 03:56:43;;;;;;;22.52;11.00;;;11.80;99.90;;;;;;5083507;27;20500;-62
2022/01/01 03:59:10;;;;;;;18.92;11.25;;;11.80;99.90;;;;;;5083100;27;20565;-62
2022/01/01 04:01:38;;;;;;;16.38;11.65;;;11.90;99.90;;;;;;5117179;27;20051;-62
2022/01/01 04:04:05;;;;;;;15.88;10.18;;;11.90;99.90;;;;;;5135053;27;20065;-62
2022/01/01 04:06:33;;;;;;;19.40;12.52;;;11.90;99.90;;;;;;5135035;27;20043;-62
2022/01/01 04:09:00;;;;;;;15.75;9.60;;;12.00;99.90;;;;;;5100140;27;20124;-62
2022/01/01 04:11:28;;;;;;;17.08;10.18;;;11.90;99.90;;;;;;5134346;27;20050;-62
2022/01/01 04:13:56;;;;;;;16.23;10.38;;;12.00;99.90;;;;;;5134820;27;20067;-62
2022/01/01 04:16:23;;;;;;;17.08;10.15;;;12.00;99.90;;;;;;5134932;27;20039;-62
2022/01/01 04:18:51;;;;;;;19.02;12.18;;;12.00;99.90;;;;;;5134805;27;20043;-62
2022/01/01 04:21:18;;;;;;;19.23;9.95;;;12.00;99.90;;;;;;5116547;27;20039;-62
2022/01/01 04:23:46;;;;;;;24.83;11.35;;;12.00;99.90;;;;;;5134845;27;20046;-62
2022/01/01 04:26:13;;;;;;;19.25;11.40;;;12.00;99.90;;;;;;5116585;27;20031;-63
2022/01/01 04:28:41;;;;;;;16.23;10.75;;;12.00;99.90;;;;;;5099556;28;20043;-62
2022/01/01 04:31:09;;;;;;;18.73;10.98;;;12.00;99.90;;;;;;5134481;27;20047;-62
2022/01/01 04:33:37;;;;;;;20.85;10.23;;;12.10;99.90;;;;;;5116791;27;20040;-62
2022/01/01 04:36:04;;;;;;;19.35;11.93;;;12.00;99.90;;;;;;5134795;27;20043;-62
2022/01/01 04:41:14;;;;;;;20.33;11.93;;;12.10;99.90;;;;;;5134580;27;20135;-62
2022/01/01 04:43:46;;;;;;;17.38;11.48;;;12.10;99.90;;;;;;5116881;28;20067;-62
2022/01/01 04:46:14;;;;;;;22.27;11.95;;;12.10;99.90;;;;;;5134183;28;20089;-62
2022/01/01 04:48:42;;;;;;;20.55;11.88;;;12.10;99.90;;;;;;5082844;28;20068;-62
2022/01/01 04:51:11;;;;;;;18.02;11.27;;;12.00;99.90;;;;;;5116485;28;20043;-62
2022/01/01 04:53:40;;;;;;;19.45;12.75;;;12.00;99.90;;;;;;5134367;28;20040;-63
2022/01/01 04:56:08;;;;;;;23.20;12.05;;;12.00;99.90;;;;;;5116230;28;20051;-62
2022/01/01 04:58:36;;;;;;;18.92;12.02;;;12.00;99.90;;;;;;5116463;28;20043;-62
2022/01/01 05:01:03;;;;;;;23.38;14.05;;;12.00;99.90;;;;;;5116266;28;20053;-62
2022/01/01 05:03:31;;;;;;;20.40;12.48;;;12.00;99.90;;;;;;5082481;28;20417;-62
2022/01/01 05:06:00;;;;;;;25.75;12.32;;;12.00;99.90;;;;;;5116284;28;20059;-62
2022/01/01 05:08:27;;;;;;;20.83;11.23;;;11.90;99.90;;;;;;5116084;28;20138;-62
2022/01/01 05:10:55;;;;;;;20.25;12.30;;;11.90;99.90;;;;;;5090778;28;20049;-62
2022/01/01 05:13:22;;;;;;;19.85;11.95;;;11.90;99.90;;;;;;5116060;28;20036;-62
2022/01/01 05:15:51;;;;;;;22.88;13.10;;;11.90;99.90;;;;;;5099351;28;20051;-62
2022/01/01 05:18:19;;;;;;;22.85;13.73;;;11.90;99.90;;;;;;5115997;28;20155;-62
2022/01/01 05:20:46;;;;;;;22.60;13.18;;;12.00;99.90;;;;;;5134219;28;20088;-62
2022/01/01 05:23:14;;;;;;;25.35;12.90;;;12.00;99.90;;;;;;5116900;27;20058;-62
2022/01/01 05:25:41;;;;;;;26.23;14.27;;;12.00;99.90;;;;;;5137884;27;20570;-62
2022/01/01 05:28:09;;;;;;;21.15;12.82;;;12.00;99.90;;;;;;5120067;27;20100;-62
2022/01/01 05:30:36;;;;;;;22.70;13.52;;;12.10;99.90;;;;;;5120056;27;20078;-63
2022/01/01 05:33:04;;;;;;;24.83;13.90;;;12.00;99.90;;;;;;5120127;27;20035;-62
2022/01/01 05:35:32;;;;;;;21.33;13.05;;;12.00;99.90;;;;;;5102832;27;20400;-62
2022/01/01 05:37:59;;;;;;;24.30;13.68;;;12.10;99.90;;;;;;5102854;27;20088;-62
2022/01/01 05:40:37;;;;;;;27.20;15.63;;;12.10;99.90;;;;;;5119757;27;20051;-62
2022/01/01 05:43:12;;;;;;;23.02;12.95;;;12.10;99.90;;;;;;5102637;27;20047;-62
2022/01/01 05:45:42;;;;;;;22.15;13.10;;;12.20;99.90;;;;;;5137617;27;20499;-62
2022/01/01 05:48:10;;;;;;;28.38;15.40;;;12.20;99.90;;;;;;5118476;27;20092;-63
2022/01/01 05:50:37;;;;;;;30.58;16.02;;;12.20;99.90;;;;;;5137593;27;20066;-62
2022/01/01 05:53:05;;;;;;;26.75;16.23;;;12.30;99.90;;;;;;5102823;27;20429;-62
2022/01/01 05:55:33;;;;;;;30.27;14.68;;;12.30;99.90;;;;;;5137448;27;20046;-62
2022/01/01 05:58:01;;;;;;;32.00;17.13;;;12.30;99.90;;;;;;5102570;27;20498;-62
2022/01/01 06:00:29;;;;;;;27.02;16.48;;;12.30;99.90;;;;;;5119322;27;20088;-62
2022/01/01 06:03:00;;;;;;;24.77;15.02;;;12.30;99.90;;;;;;5119186;27;20405;-62
2022/01/01 06:05:29;;;;;;;26.05;15.07;;;12.40;99.90;;;;;;5119000;27;20043;-62
2022/01/01 06:07:58;;;;;;;25.38;13.50;;;12.40;99.90;;;;;;5119210;27;20118;-62
2022/01/01 06:10:26;;;;;;;25.50;14.43;;;12.40;99.90;;;;;;5119192;27;20388;-62
2022/01/01 06:12:54;;;;;;;30.67;17.83;;;12.40;99.90;;;;;;5102363;27;20039;-62
2022/01/01 06:15:22;;;;;;;30.83;15.90;;;12.40;99.90;;;;;;5101754;27;20112;-62
2022/01/01 06:17:50;;;;;;;29.30;14.55;;;12.40;99.90;;;;;;5118903;27;20038;-62
2022/01/01 06:20:18;;;;;;;34.58;17.45;;;12.40;99.90;;;;;;5118898;27;20088;-62
2022/01/01 06:23:02;;;;;;;40.40;17.10;;;12.40;99.90;;;;;;5118926;27;20062;-63
2022/01/01 06:25:29;;;;;;;33.03;15.57;;;12.40;99.90;;;;;;5118926;27;20043;-62
2022/01/01 06:27:57;;;;;;;29.15;17.10;;;12.40;99.90;;;;;;5119065;27;20035;-62
2022/01/01 06:30:24;;;;;;;32.50;19.05;;;12.50;99.90;;;;;;5136821;27;20042;-62
2022/01/01 06:32:52;;;;;;;31.00;17.58;;;12.50;99.90;;;;;;5118589;27;20051;-62
2022/01/01 06:35:19;;;;;;;31.52;16.77;;;12.50;99.90;;;;;;5136596;27;20035;-62
2022/01/01 06:37:47;;;;;;;34.33;18.38;;;12.50;99.90;;;;;;5101557;27;20520;-62
2022/01/01 06:40:15;;;;;;;30.40;18.50;;;12.50;99.90;;;;;;5101505;27;20489;-63
2022/01/01 06:42:42;;;;;;;31.08;18.23;;;12.50;99.90;;;;;;5118298;27;20039;-63
2022/01/01 06:45:10;;;;;;;34.83;17.38;;;12.60;99.90;;;;;;5136531;27;20047;-62
2022/01/01 06:47:37;;;;;;;31.38;17.40;;;12.60;99.90;;;;;;5136918;27;20047;-62
2022/01/01 06:50:05;;;;;;;37.63;18.45;;;12.60;99.90;;;;;;5118653;27;20135;-62
2022/01/01 06:52:33;;;;;;;34.55;20.25;;;12.60;99.90;;;;;;5101190;27;20404;-62
2022/01/01 06:55:00;;;;;;;35.85;19.98;;;12.60;99.90;;;;;;5136255;27;20070;-62
2022/01/01 06:57:28;;;;;;;28.33;17.58;;;12.70;99.90;;;;;;5136325;27;20039;-62
2022/01/01 06:59:55;;;;;;;32.20;17.88;;;12.70;99.90;;;;;;5117486;27;20131;-63
2022/01/01 07:02:23;;;;;;;28.13;16.55;;;12.70;99.90;;;;;;5136390;27;20043;-62
2022/01/01 07:04:50;;;;;;;29.00;17.73;;;12.60;99.90;;;;;;5136369;27;20043;-62
2022/01/01 07:07:18;;;;;;;25.92;16.20;;;12.60;99.90;;;;;;5101198;27;20051;-62
2022/01/01 07:09:45;;;;;;;28.08;17.23;;;12.60;99.90;;;;;;5136212;27;20489;-62
2022/01/01 07:12:13;;;;;;;40.03;18.92;;;12.70;99.90;;;;;;5100802;27;20153;-62
2022/01/01 07:14:41;;;;;;;31.67;18.02;;;12.70;99.90;;;;;;5100773;27;20073;-62
2022/01/01 07:17:11;;;;;;;30.00;16.33;;;12.70;99.90;;;;;;5117740;27;20043;-62
2022/01/01 07:19:38;;;;;;;36.72;17.13;;;12.70;99.90;;;;;;5117754;27;20362;-62
2022/01/01 07:22:06;;;;;;;34.15;19.08;;;12.70;99.90;;;;;;5136072;27;20070;-62
2022/01/01 07:24:33;;;;;;;34.72;18.65;;;12.70;99.90;;;;;;5136078;27;20082;-62
2022/01/01 07:27:01;;;;;;;32.10;16.13;;;12.80;99.90;;;;;;5100750;27;20047;-62
2022/01/01 07:29:28;;;;;;;34.83;18.05;;;12.80;99.90;;;;;;5117431;27;20108;-62
2022/01/01 07:31:56;;;;;;;26.85;17.00;;;12.80;99.90;;;;;;5135777;27;20078;-62
2022/01/01 07:34:24;;;;;;;32.58;18.08;;;12.80;99.90;;;;;;5083489;27;20485;-62
2022/01/01 07:36:52;;;;;;;34.53;17.75;;;12.80;99.90;;;;;;5117549;27;20077;-62
2022/01/01 07:39:19;;;;;;;30.13;15.70;;;12.90;99.90;;;;;;5135209;27;20039;-62
2022/01/01 07:41:47;;;;;;;28.30;14.25;;;12.90;99.90;;;;;;5117094;27;20560;-62
2022/01/01 07:44:14;;;;;;;30.70;16.30;;;12.90;99.90;;;;;;5100278;27;20039;-62
2022/01/01 07:46:44;;;;;;;30.08;15.70;;;12.90;99.90;;;;;;5099605;27;20435;-62
2022/01/01 07:49:11;;;;;;;35.10;14.93;;;12.90;99.90;;;;;;5117181;27;20091;-62
2022/01/01 07:51:39;;;;;;;25.60;14.85;;;12.80;99.90;;;;;;5100470;27;20608;-62
2022/01/01 07:54:06;;;;;;;27.77;14.55;;;12.90;99.90;;;;;;5117055;27;20043;-62
2022/01/01 07:56:34;;;;;;;22.90;12.25;;;12.80;99.90;;;;;;5117019;27;20473;-62
2022/01/01 07:59:04;;;;;;;28.00;13.85;;;12.90;99.90;;;;;;5117245;27;20043;-62
2022/01/01 08:01:32;;;;;;;23.02;14.27;;;12.90;99.90;;;;;;5117007;27;20067;-62
2022/01/01 08:04:02;;;;;;;26.23;14.10;;;12.80;99.90;;;;;;5135166;27;20071;-62
2022/01/01 08:06:30;;;;;;;30.63;14.77;;;12.80;99.90;;;;;;5116801;27;20100;-62
2022/01/01 08:08:58;;;;;;;26.73;15.57;;;12.80;99.90;;;;;;5116839;27;20130;-63
2022/01/01 08:11:26;;;;;;;27.40;15.10;;;12.80;99.90;;;;;;5116577;27;20047;-62
2022/01/01 08:13:54;;;;;;;23.65;14.93;;;12.80;99.90;;;;;;5083113;27;20475;-62
2022/01/01 08:16:21;;;;;;;23.30;12.32;;;12.80;99.90;;;;;;5100039;27;20081;-62
2022/01/01 08:18:49;;;;;;;22.35;14.50;;;12.80;99.90;;;;;;5116588;27;20062;-62
2022/01/01 08:21:17;;;;;;;21.17;11.30;;;12.80;99.90;;;;;;5134788;27;20047;-62
2022/01/01 08:23:44;;;;;;;21.00;10.75;;;12.70;99.90;;;;;;5116490;27;20035;-62
2022/01/01 08:26:12;;;;;;;22.08;9.77;;;12.70;99.90;;;;;;5134853;27;20054;-63
2022/01/01 08:28:41;;;;;;;16.15;11.20;;;12.70;99.90;;;;;;5116237;27;20497;-62
2022/01/01 08:31:09;;;;;;;21.98;10.48;;;12.60;99.90;;;;;;5082542;28;20059;-65
2022/01/01 08:33:36;;;;;;;17.23;8.52;;;12.60;99.90;;;;;;5116445;27;20043;-60
2022/01/01 08:36:04;;;;;;;23.65;12.98;;;12.70;99.90;;;;;;5134637;27;20066;-62
2022/01/01 08:38:32;;;;;;;27.63;12.60;;;12.70;99.90;;;;;;5116229;27;20091;-62
2022/01/01 08:41:00;;;;;;;22.33;12.65;;;12.60;99.90;;;;;;5116437;28;20446;-62
2022/01/01 08:43:28;;;;;;;23.70;13.80;;;12.70;99.90;;;;;;5082605;28;20512;-62
2022/01/01 08:45:55;;;;;;;25.83;13.52;;;12.70;99.90;;;;;;5116291;28;20043;-62
2022/01/01 08:48:23;;;;;;;24.60;13.00;;;12.80;99.90;;;;;;5116241;28;20041;-62
2022/01/01 08:50:50;;;;;;;21.80;13.80;;;12.80;99.90;;;;;;5116283;28;20039;-63
2022/01/01 08:53:18;;;;;;;26.27;13.93;;;12.90;99.90;;;;;;5134309;28;20043;-63
2022/01/01 08:55:46;;;;;;;23.08;13.80;;;12.90;99.90;;;;;;5134274;28;20039;-62
2022/01/01 08:58:13;;;;;;;31.33;15.77;;;13.00;99.90;;;;;;5119395;27;20031;-62
2022/01/01 09:00:51;;;;;;;22.08;13.80;;;13.00;99.90;;;;;;5103625;27;20042;-60
2022/01/01 09:03:19;;;;;;;26.60;14.55;;;13.20;99.90;;;;;;5120412;27;20053;-61
2022/01/01 09:05:47;;;;;;;29.60;14.07;;;13.30;99.90;;;;;;5120427;27;20043;-60
2022/01/01 09:08:37;;;;;;;22.50;12.40;;;13.40;99.90;;;;;;5138561;27;20050;-60
2022/01/01 09:11:05;;;;;;;22.55;11.73;;;13.50;99.90;;;;;;5138666;27;20035;-60
2022/01/01 09:13:33;;;;;;;19.73;9.73;;;13.60;99.90;;;;;;5138333;27;20068;-60
2022/01/01 09:16:01;;;;;;;17.55;12.32;;;13.50;99.90;;;;;;5119990;27;20084;-60
2022/01/01 09:18:29;;;;;;;20.95;10.77;;;13.50;99.90;;;;;;5120233;27;20513;-60
2022/01/01 09:20:56;;;;;;;18.50;10.85;;;13.50;99.90;;;;;;5138355;27;20050;-60
2022/01/01 09:23:26;;;;;;;15.13;9.65;;;13.50;99.90;;;;;;5138281;27;20135;-60
2022/01/01 09:25:53;;;;;;;16.02;8.93;;;13.60;99.90;;;;;;5119989;27;20043;-60
2022/01/01 09:28:21;;;;;;;11.75;8.65;;;13.50;99.90;;;;;;5102681;27;20516;-60
2022/01/01 09:30:49;;;;;;;15.25;10.15;;;13.50;99.90;;;;;;5138046;27;20092;-60
2022/01/01 09:33:16;;;;;;;17.83;9.50;;;13.50;99.90;;;;;;5103182;27;20043;-60
2022/01/01 09:35:44;;;;;;;17.25;9.63;;;13.50;99.90;;;;;;5119940;27;20391;-60
2022/01/01 09:38:11;;;;;;;15.95;9.45;;;13.40;99.90;;;;;;5119638;27;20061;-61
2022/01/01 09:40:39;;;;;;;14.90;9.05;;;13.50;99.90;;;;;;5119732;27;20481;-60
2022/01/01 09:43:10;;;;;;;21.92;10.25;;;13.60;99.90;;;;;;5137679;27;20043;-60
2022/01/01 09:45:41;;;;;;;13.82;7.95;;;13.60;99.90;;;;;;5137760;27;20084;-60
2022/01/01 09:48:08;;;;;;;35.92;12.18;;;13.70;99.90;;;;;;5138017;27;20092;-60
2022/01/01 09:50:38;;;;;;;17.38;9.52;;;13.70;99.90;;;;;;5102434;27;20043;-60
2022/01/01 09:53:06;;;;;;;15.55;9.75;;;13.80;99.90;;;;;;5119245;27;20571;-60
2022/01/01 09:55:35;;;;;;;18.13;10.88;;;13.90;99.90;;;;;;5137297;27;20051;-62
2022/01/01 09:58:03;;;;;;;19.60;9.90;;;13.90;99.90;;;;;;5102361;27;20082;-60
2022/01/01 10:00:31;;;;;;;15.20;10.13;;;14.00;99.90;;;;;;5119257;27;20070;-60
2022/01/01 10:02:58;;;;;;;14.52;9.32;;;14.00;99.90;;;;;;5085559;27;20055;-61
2022/01/01 10:05:26;;;;;;;19.10;10.82;;;14.00;99.90;;;;;;5137428;27;20134;-60
2022/01/01 10:07:53;;;;;;;19.63;12.10;;;14.00;99.90;;;;;;5137401;27;20092;-60
2022/01/01 10:10:26;;;;;;;49.53;20.85;;;14.20;99.90;;;;;;5118133;27;20035;-60
2022/01/01 10:12:54;;;;;;;24.27;13.88;;;14.30;99.90;;;;;;5118901;27;20130;-60
2022/01/01 10:15:21;;;;;;;50.72;22.58;;;14.40;99.90;;;;;;5119202;27;20039;-60
2022/01/01 10:17:49;;;;;;;84.68;32.88;;;14.40;99.90;;;;;;5137106;27;20058;-61
2022/01/01 10:20:17;;;;;;;25.17;13.32;;;14.60;99.90;;;;;;5101995;27;20081;-60
2022/01/01 10:22:49;;;;;;;21.30;11.27;;;14.70;99.90;;;;;;5101979;27;20401;-60
2022/01/01 10:28:05;;;;;;;15.82;9.85;;;15.00;99.90;;;;;;5102168;27;20053;-60
2022/01/01 10:30:39;;;;;;;20.55;12.43;;;15.00;99.90;;;;;;5118841;27;20043;-61
2022/01/01 10:33:16;;;;;;;14.38;8.70;;;15.10;99.90;;;;;;5136751;27;20047;-60
2022/01/01 10:35:48;;;;;;;16.70;7.97;;;15.10;99.90;;;;;;5136847;27;20039;-60
2022/01/01 10:38:19;;;;;;;12.68;8.13;;;15.20;99.90;;;;;;5137001;27;20039;-60
2022/01/01 10:40:47;;;;;;;12.98;7.82;;;15.20;99.90;;;;;;5136719;27;20039;-60
2022/01/01 10:43:16;;;;;;;9.38;6.15;;;15.20;99.90;;;;;;5118413;27;20043;-61
2022/01/01 10:45:47;;;;;;;14.52;7.00;;;15.10;99.90;;;;;;5101406;27;20389;-60
2022/01/01 10:48:20;;;;;;;14.43;7.88;;;15.10;99.90;;;;;;5136126;27;20508;-60
2022/01/01 10:50:50;;;;;;;9.02;5.20;;;15.10;99.90;;;;;;5136839;27;20397;-59
2022/01/01 10:53:22;;;;;;;9.82;6.00;;;15.10;99.90;;;;;;5118451;27;20035;-59
2022/01/01 10:56:01;;;;;;;13.25;6.72;;;15.00;99.90;;;;;;5136194;27;20420;-59
2022/01/01 10:58:31;;;;;;;10.30;6.93;;;15.10;99.90;;;;;;5136053;27;20073;-59
2022/01/01 11:01:02;;;;;;;14.15;6.32;;;15.00;99.90;;;;;;5117990;27;20047;-59
2022/01/01 11:03:40;;;;;;;12.32;7.07;;;15.00;99.90;;;;;;5090110;28;20086;-60
2022/01/01 11:06:13;;;;;;;9.25;5.82;;;15.00;99.90;;;;;;5110062;27;20058;-62
2022/01/01 11:08:42;;;;;;;12.23;6.60;;;15.00;99.90;;;;;;5115545;27;20027;-58
2022/01/01 11:11:12;;;;;;;10.93;6.50;;;15.00;99.90;;;;;;5115439;27;20050;-60
2022/01/01 11:13:42;;;;;;;11.05;6.07;;;15.00;99.90;;;;;;5120784;27;20115;-59
2022/01/01 11:16:10;;;;;;;10.57;6.93;;;15.00;99.90;;;;;;5122027;27;20393;-59
2022/01/01 11:18:39;;;;;;;9.50;4.90;;;14.90;99.90;;;;;;5107461;27;20043;-60
2022/01/01 11:21:07;;;;;;;10.57;5.43;;;14.90;99.90;;;;;;5082911;28;20465;-59
2022/01/01 11:23:35;;;;;;;11.23;6.00;;;15.00;99.90;;;;;;5106880;27;20497;-59
2022/01/01 11:26:02;;;;;;;12.43;5.32;;;14.90;99.90;;;;;;5104526;28;20055;-59
2022/01/01 11:28:30;;;;;;;11.23;5.82;;;15.00;99.90;;;;;;5120704;27;20043;-59
2022/01/01 11:31:02;;;;;;;11.55;5.47;;;15.10;99.90;;;;;;5097979;27;20130;-59
2022/01/01 11:33:35;;;;;;;16.63;6.70;;;15.10;99.90;;;;;;5102714;27;20035;-59
2022/01/01 11:36:04;;;;;;;10.65;6.00;;;15.10;99.90;;;;;;5100270;27;20122;-59
2022/01/01 11:38:35;;;;;;;10.27;5.75;;;15.10;99.90;;;;;;5131946;27;20035;-60
2022/01/01 11:41:07;;;;;;;13.60;7.13;;;15.20;99.90;;;;;;5086710;27;20075;-59
2022/01/01 11:43:35;;;;;;;11.70;6.78;;;15.30;99.90;;;;;;5102420;27;20459;-61
2022/01/01 11:46:08;;;;;;;14.07;6.57;;;15.30;99.90;;;;;;5104631;28;20052;-59
2022/01/01 11:48:38;;;;;;;13.95;6.85;;;15.30;99.90;;;;;;5057665;28;20513;-60
2022/01/01 11:51:32;;;;;;;19.48;8.48;;;15.30;99.90;;;;;;5075353;28;20471;-59
2022/01/01 11:54:14;;;;;;;15.90;10.73;;;15.40;99.90;;;;;;5058571;28;20070;-61
2022/01/01 11:56:56;;;;;;;9.75;7.03;;;15.40;99.90;;;;;;5076530;28;20032;-59
2022/01/01 11:59:38;;;;;;;14.70;7.88;;;15.30;99.90;;;;;;5097642;28;20040;-60
2022/01/01 12:02:11;;;;;;;21.77;12.30;;;15.40;99.90;;;;;;5055300;28;20040;-59
2022/01/01 12:04:45;;;;;;;60.47;45.33;;;15.60;99.90;;;;;;5043384;28;20490;-60
2022/01/01 12:07:12;;;;;;;20.38;13.32;;;15.70;99.90;;;;;;5089543;28;20066;-60
2022/01/01 12:09:55;;;;;;;78.63;50.17;;;15.70;99.90;;;;;;5074698;28;20060;-59
2022/01/01 12:12:49;;;;;;;217.57;138.20;;;15.70;99.90;;;;;;5074163;28;20089;-60
2022/01/01 12:15:26;;;;;;;159.80;104.07;;;15.70;99.90;;;;;;5074367;28;20551;-59
2022/01/01 12:17:56;;;;;;;85.32;58.92;;;15.90;99.90;;;;;;5073577;28;20512;-60
2022/01/01 12:20:40;;;;;;;46.67;27.65;;;16.10;99.90;;;;;;5080567;28;20041;-60
2022/01/01 12:23:15;;;;;;;23.85;16.83;;;16.30;99.90;;;;;;5074018;28;20136;-60
2022/01/01 12:25:44;;;;;;;16.00;10.35;;;16.40;99.90;;;;;;5071856;28;20044;-61
2022/01/01 12:28:22;;;;;;;17.88;10.88;;;16.50;99.90;;;;;;5085199;28;20044;-62
2022/01/01 12:30:54;;;;;;;16.77;9.98;;;16.40;99.90;;;;;;5073948;28;20048;-61
2022/01/01 12:33:38;;;;;;;15.25;9.38;;;16.20;99.90;;;;;;5090336;28;20059;-61
2022/01/01 12:36:15;;;;;;;13.60;8.98;;;16.00;99.90;;;;;;5074043;28;20504;-60
2022/01/01 12:39:09;;;;;;;12.88;8.05;;;15.90;99.90;;;;;;5074060;28;20028;-60
2022/01/01 12:41:40;;;;;;;12.98;7.07;;;15.90;99.90;;;;;;5033206;28;20135;-60
2022/01/01 12:44:12;;;;;;;14.00;7.88;;;15.90;99.90;;;;;;5072904;28;20529;-59
2022/01/01 12:46:49;;;;;;;9.68;6.28;;;15.80;99.90;;;;;;5059876;28;20048;-59